sensor_id;sensor_type;location;lat;lon;timestamp;P1;durP1;ratioP1;P2;durP2;ratioP2
17171;SDS011;8701;50.150;8.756;2024-03-02T00:03:24;6.57;;;5.47;;
17171;SDS011;8701;50.150;8.756;2024-03-02T00:07:27;9.03;;;6.00;;
17171;SDS011;8701;50.150;8.756;2024-03-02T00:11:30;8.30;;;5.67;;
17171;SDS011;8701;50.150;8.756;2024-03-02T00:15:40;9.60;;;6.60;;
17171;SDS011;8701;50.150;8.756;2024-03-02T00:19:43;7.90;;;6.40;;
17171;SDS011;8701;50.150;8.756;2024-03-02T00:23:46;9.80;;;6.50;;
17171;SDS011;8701;50.150;8.756;2024-03-02T00:27:52;10.40;;;7.40;;
17171;SDS011;8701;50.150;8.756;2024-03-02T00:31:54;8.20;;;6.80;;
17171;SDS011;8701;50.150;8.756;2024-03-02T00:35:56;8.00;;;6.53;;
17171;SDS011;8701;50.150;8.756;2024-03-02T00:40:00;10.63;;;6.53;;
17171;SDS011;8701;50.150;8.756;2024-03-02T00:44:06;8.63;;;7.20;;
17171;SDS011;8701;50.150;8.756;2024-03-02T00:48:11;10.37;;;7.37;;
17171;SDS011;8701;50.150;8.756;2024-03-02T00:52:17;8.33;;;6.17;;
17171;SDS011;8701;50.150;8.756;2024-03-02T00:56:19;11.03;;;7.43;;
17171;SDS011;8701;50.150;8.756;2024-03-02T01:00:23;9.83;;;6.90;;
17171;SDS011;8701;50.150;8.756;2024-03-02T01:04:25;9.10;;;6.70;;
17171;SDS011;8701;50.150;8.756;2024-03-02T01:08:27;17.70;;;7.80;;
17171;SDS011;8701;50.150;8.756;2024-03-02T01:12:29;10.70;;;7.40;;
17171;SDS011;8701;50.150;8.756;2024-03-02T01:16:33;10.33;;;7.33;;
17171;SDS011;8701;50.150;8.756;2024-03-02T01:20:35;12.40;;;7.77;;
17171;SDS011;8701;50.150;8.756;2024-03-02T01:24:38;13.33;;;8.07;;
17171;SDS011;8701;50.150;8.756;2024-03-02T01:28:41;12.10;;;8.17;;
17171;SDS011;8701;50.150;8.756;2024-03-02T01:32:45;15.27;;;7.80;;
17171;SDS011;8701;50.150;8.756;2024-03-02T01:36:47;12.97;;;8.20;;
17171;SDS011;8701;50.150;8.756;2024-03-02T01:40:49;13.57;;;8.90;;
17171;SDS011;8701;50.150;8.756;2024-03-02T01:44:52;14.90;;;8.80;;
17171;SDS011;8701;50.150;8.756;2024-03-02T01:48:55;14.20;;;9.10;;
17171;SDS011;8701;50.150;8.756;2024-03-02T01:52:58;14.00;;;9.33;;
17171;SDS011;8701;50.150;8.756;2024-03-02T01:57:01;18.00;;;9.40;;
17171;SDS011;8701;50.150;8.756;2024-03-02T02:01:03;14.77;;;9.07;;
17171;SDS011;8701;50.150;8.756;2024-03-02T02:05:07;12.60;;;8.30;;
17171;SDS011;8701;50.150;8.756;2024-03-02T02:09:10;13.80;;;9.10;;
17171;SDS011;8701;50.150;8.756;2024-03-02T02:13:13;12.77;;;8.60;;
17171;SDS011;8701;50.150;8.756;2024-03-02T02:17:15;14.50;;;9.13;;
17171;SDS011;8701;50.150;8.756;2024-03-02T02:21:23;12.67;;;8.40;;
17171;SDS011;8701;50.150;8.756;2024-03-02T02:25:25;13.53;;;8.57;;
17171;SDS011;8701;50.150;8.756;2024-03-02T02:29:28;16.70;;;8.37;;
17171;SDS011;8701;50.150;8.756;2024-03-02T02:33:30;13.97;;;9.37;;
17171;SDS011;8701;50.150;8.756;2024-03-02T02:37:34;12.07;;;8.27;;
17171;SDS011;8701;50.150;8.756;2024-03-02T02:41:36;16.47;;;9.13;;
17171;SDS011;8701;50.150;8.756;2024-03-02T02:45:39;17.10;;;9.70;;
17171;SDS011;8701;50.150;8.756;2024-03-02T02:49:41;17.00;;;9.60;;
17171;SDS011;8701;50.150;8.756;2024-03-02T02:53:44;14.57;;;9.43;;
17171;SDS011;8701;50.150;8.756;2024-03-02T02:57:47;15.50;;;9.40;;
17171;SDS011;8701;50.150;8.756;2024-03-02T03:01:51;17.23;;;9.97;;
17171;SDS011;8701;50.150;8.756;2024-03-02T03:05:54;15.60;;;10.03;;
17171;SDS011;8701;50.150;8.756;2024-03-02T03:09:57;13.23;;;9.40;;
17171;SDS011;8701;50.150;8.756;2024-03-02T03:14:00;14.03;;;9.53;;
17171;SDS011;8701;50.150;8.756;2024-03-02T03:18:02;16.97;;;10.30;;
17171;SDS011;8701;50.150;8.756;2024-03-02T03:22:05;13.60;;;8.37;;
17171;SDS011;8701;50.150;8.756;2024-03-02T03:26:09;15.97;;;9.50;;
17171;SDS011;8701;50.150;8.756;2024-03-02T03:30:11;15.27;;;10.10;;
17171;SDS011;8701;50.150;8.756;2024-03-02T03:34:14;14.70;;;9.40;;
17171;SDS011;8701;50.150;8.756;2024-03-02T03:38:16;16.80;;;9.90;;
17171;SDS011;8701;50.150;8.756;2024-03-02T03:42:20;15.33;;;9.90;;
17171;SDS011;8701;50.150;8.756;2024-03-02T03:46:22;17.90;;;10.03;;
17171;SDS011;8701;50.150;8.756;2024-03-02T03:50:25;18.47;;;10.30;;
17171;SDS011;8701;50.150;8.756;2024-03-02T03:54:27;16.50;;;9.43;;
17171;SDS011;8701;50.150;8.756;2024-03-02T03:58:30;16.40;;;10.17;;
17171;SDS011;8701;50.150;8.756;2024-03-02T04:02:33;13.47;;;9.17;;
17171;SDS011;8701;50.150;8.756;2024-03-02T04:06:36;13.83;;;9.10;;
17171;SDS011;8701;50.150;8.756;2024-03-02T04:10:38;15.57;;;9.80;;
17171;SDS011;8701;50.150;8.756;2024-03-02T04:14:43;16.20;;;10.63;;
17171;SDS011;8701;50.150;8.756;2024-03-02T04:18:46;15.03;;;9.70;;
17171;SDS011;8701;50.150;8.756;2024-03-02T04:22:48;18.23;;;11.17;;
17171;SDS011;8701;50.150;8.756;2024-03-02T04:26:50;16.40;;;10.27;;
17171;SDS011;8701;50.150;8.756;2024-03-02T04:30:54;13.80;;;8.90;;
17171;SDS011;8701;50.150;8.756;2024-03-02T04:34:56;16.23;;;9.70;;
17171;SDS011;8701;50.150;8.756;2024-03-02T04:38:59;14.33;;;9.23;;
17171;SDS011;8701;50.150;8.756;2024-03-02T04:43:01;17.73;;;10.10;;
17171;SDS011;8701;50.150;8.756;2024-03-02T04:47:05;17.67;;;9.83;;
17171;SDS011;8701;50.150;8.756;2024-03-02T04:51:07;18.20;;;10.77;;
17171;SDS011;8701;50.150;8.756;2024-03-02T04:55:10;19.87;;;10.87;;
17171;SDS011;8701;50.150;8.756;2024-03-02T04:59:30;17.60;;;11.43;;
17171;SDS011;8701;50.150;8.756;2024-03-02T05:03:33;17.47;;;11.17;;
17171;SDS011;8701;50.150;8.756;2024-03-02T05:07:36;18.50;;;11.37;;
17171;SDS011;8701;50.150;8.756;2024-03-02T05:11:38;18.43;;;11.07;;
17171;SDS011;8701;50.150;8.756;2024-03-02T05:15:56;23.30;;;11.27;;
17171;SDS011;8701;50.150;8.756;2024-03-02T05:20:00;19.97;;;11.43;;
17171;SDS011;8701;50.150;8.756;2024-03-02T05:24:03;15.43;;;9.90;;
17171;SDS011;8701;50.150;8.756;2024-03-02T05:28:06;16.13;;;10.63;;
17171;SDS011;8701;50.150;8.756;2024-03-02T05:32:08;20.27;;;11.23;;
17171;SDS011;8701;50.150;8.756;2024-03-02T05:36:12;15.07;;;9.80;;
17171;SDS011;8701;50.150;8.756;2024-03-02T05:40:14;20.30;;;11.80;;
17171;SDS011;8701;50.150;8.756;2024-03-02T05:44:17;17.10;;;11.20;;
17171;SDS011;8701;50.150;8.756;2024-03-02T05:48:20;20.30;;;10.90;;
17171;SDS011;8701;50.150;8.756;2024-03-02T05:52:23;16.20;;;10.33;;
17171;SDS011;8701;50.150;8.756;2024-03-02T05:56:26;17.73;;;9.77;;
17171;SDS011;8701;50.150;8.756;2024-03-02T06:00:28;13.53;;;9.50;;
17171;SDS011;8701;50.150;8.756;2024-03-02T06:04:31;16.00;;;10.10;;
17171;SDS011;8701;50.150;8.756;2024-03-02T06:08:35;17.13;;;10.03;;
17171;SDS011;8701;50.150;8.756;2024-03-02T06:12:37;17.20;;;9.47;;
17171;SDS011;8701;50.150;8.756;2024-03-02T06:16:40;16.80;;;10.80;;
17171;SDS011;8701;50.150;8.756;2024-03-02T06:20:42;14.53;;;9.93;;
17171;SDS011;8701;50.150;8.756;2024-03-02T06:24:46;17.37;;;10.90;;
17171;SDS011;8701;50.150;8.756;2024-03-02T06:28:48;18.20;;;11.07;;
17171;SDS011;8701;50.150;8.756;2024-03-02T06:32:51;18.07;;;10.50;;
17171;SDS011;8701;50.150;8.756;2024-03-02T06:36:53;15.40;;;9.60;;
17171;SDS011;8701;50.150;8.756;2024-03-02T06:40:57;14.67;;;9.50;;
17171;SDS011;8701;50.150;8.756;2024-03-02T06:45:00;14.60;;;9.97;;
17171;SDS011;8701;50.150;8.756;2024-03-02T06:49:02;14.10;;;10.03;;
17171;SDS011;8701;50.150;8.756;2024-03-02T06:53:05;15.93;;;10.47;;
17171;SDS011;8701;50.150;8.756;2024-03-02T06:57:08;16.53;;;10.57;;
17171;SDS011;8701;50.150;8.756;2024-03-02T07:01:11;18.80;;;11.47;;
17171;SDS011;8701;50.150;8.756;2024-03-02T07:05:14;16.53;;;10.20;;
17171;SDS011;8701;50.150;8.756;2024-03-02T07:09:16;18.30;;;10.37;;
17171;SDS011;8701;50.150;8.756;2024-03-02T07:13:24;17.77;;;10.63;;
17171;SDS011;8701;50.150;8.756;2024-03-02T07:17:26;16.63;;;10.67;;
17171;SDS011;8701;50.150;8.756;2024-03-02T07:21:29;15.37;;;10.17;;
17171;SDS011;8701;50.150;8.756;2024-03-02T07:25:31;17.80;;;11.30;;
17171;SDS011;8701;50.150;8.756;2024-03-02T07:29:34;12.10;;;8.30;;
17171;SDS011;8701;50.150;8.756;2024-03-02T07:33:38;17.80;;;10.87;;
17171;SDS011;8701;50.150;8.756;2024-03-02T07:37:40;16.87;;;10.93;;
17171;SDS011;8701;50.150;8.756;2024-03-02T07:41:43;18.77;;;12.13;;
17171;SDS011;8701;50.150;8.756;2024-03-02T07:45:48;14.50;;;10.00;;
17171;SDS011;8701;50.150;8.756;2024-03-02T07:49:50;18.10;;;10.87;;
17171;SDS011;8701;50.150;8.756;2024-03-02T07:53:53;13.47;;;9.90;;
17171;SDS011;8701;50.150;8.756;2024-03-02T07:57:56;16.30;;;11.00;;
17171;SDS011;8701;50.150;8.756;2024-03-02T08:01:59;18.57;;;12.10;;
17171;SDS011;8701;50.150;8.756;2024-03-02T08:06:02;16.10;;;11.17;;
17171;SDS011;8701;50.150;8.756;2024-03-02T08:10:05;16.90;;;10.33;;
17171;SDS011;8701;50.150;8.756;2024-03-02T08:14:08;15.70;;;11.40;;
17171;SDS011;8701;50.150;8.756;2024-03-02T08:18:11;16.20;;;10.00;;
17171;SDS011;8701;50.150;8.756;2024-03-02T08:22:14;14.17;;;9.50;;
17171;SDS011;8701;50.150;8.756;2024-03-02T08:26:16;16.17;;;9.70;;
17171;SDS011;8701;50.150;8.756;2024-03-02T08:30:18;14.43;;;9.07;;
17171;SDS011;8701;50.150;8.756;2024-03-02T08:34:22;16.50;;;10.20;;
17171;SDS011;8701;50.150;8.756;2024-03-02T08:38:25;18.83;;;9.87;;
17171;SDS011;8701;50.150;8.756;2024-03-02T08:42:28;15.60;;;10.17;;
17171;SDS011;8701;50.150;8.756;2024-03-02T08:46:30;15.17;;;10.23;;
17171;SDS011;8701;50.150;8.756;2024-03-02T08:50:33;18.17;;;11.00;;
17171;SDS011;8701;50.150;8.756;2024-03-02T08:54:36;15.30;;;10.47;;
17171;SDS011;8701;50.150;8.756;2024-03-02T08:58:38;12.80;;;10.00;;
17171;SDS011;8701;50.150;8.756;2024-03-02T09:02:40;12.47;;;9.07;;
17171;SDS011;8701;50.150;8.756;2024-03-02T09:06:44;12.37;;;8.77;;
17171;SDS011;8701;50.150;8.756;2024-03-02T09:10:46;14.37;;;9.60;;
17171;SDS011;8701;50.150;8.756;2024-03-02T09:14:48;14.70;;;9.47;;
17171;SDS011;8701;50.150;8.756;2024-03-02T09:18:50;12.07;;;8.20;;
17171;SDS011;8701;50.150;8.756;2024-03-02T09:22:54;14.90;;;9.73;;
17171;SDS011;8701;50.150;8.756;2024-03-02T09:26:56;15.77;;;9.73;;
17171;SDS011;8701;50.150;8.756;2024-03-02T09:31:00;15.00;;;9.00;;
17171;SDS011;8701;50.150;8.756;2024-03-02T09:35:03;14.47;;;9.73;;
17171;SDS011;8701;50.150;8.756;2024-03-02T09:39:08;13.77;;;8.47;;
17171;SDS011;8701;50.150;8.756;2024-03-02T09:43:11;14.43;;;8.37;;
17171;SDS011;8701;50.150;8.756;2024-03-02T09:47:14;12.43;;;8.80;;
17171;SDS011;8701;50.150;8.756;2024-03-02T09:51:16;12.97;;;8.60;;
17171;SDS011;8701;50.150;8.756;2024-03-02T09:55:21;17.33;;;8.97;;
17171;SDS011;8701;50.150;8.756;2024-03-02T09:59:23;11.90;;;8.53;;
17171;SDS011;8701;50.150;8.756;2024-03-02T10:03:26;16.27;;;8.60;;
17171;SDS011;8701;50.150;8.756;2024-03-02T10:07:30;13.00;;;8.90;;
17171;SDS011;8701;50.150;8.756;2024-03-02T10:11:34;8.10;;;6.17;;
17171;SDS011;8701;50.150;8.756;2024-03-02T10:15:39;11.60;;;8.80;;
17171;SDS011;8701;50.150;8.756;2024-03-02T10:19:42;10.37;;;7.80;;
17171;SDS011;8701;50.150;8.756;2024-03-02T10:23:45;11.13;;;8.10;;
17171;SDS011;8701;50.150;8.756;2024-03-02T10:27:48;10.13;;;8.50;;
17171;SDS011;8701;50.150;8.756;2024-03-02T10:31:52;11.17;;;8.07;;
17171;SDS011;8701;50.150;8.756;2024-03-02T10:35:54;11.03;;;8.03;;
17171;SDS011;8701;50.150;8.756;2024-03-02T10:39:56;10.50;;;8.00;;
17171;SDS011;8701;50.150;8.756;2024-03-02T10:44:00;10.07;;;7.90;;
17171;SDS011;8701;50.150;8.756;2024-03-02T10:48:04;9.97;;;7.53;;
17171;SDS011;8701;50.150;8.756;2024-03-02T10:52:07;10.57;;;7.63;;
17171;SDS011;8701;50.150;8.756;2024-03-02T10:56:10;13.23;;;7.87;;
17171;SDS011;8701;50.150;8.756;2024-03-02T11:00:19;10.63;;;6.80;;
17171;SDS011;8701;50.150;8.756;2024-03-02T11:04:27;9.90;;;6.83;;
17171;SDS011;8701;50.150;8.756;2024-03-02T11:08:29;12.10;;;7.37;;
17171;SDS011;8701;50.150;8.756;2024-03-02T11:12:34;12.30;;;7.10;;
17171;SDS011;8701;50.150;8.756;2024-03-02T11:16:41;9.13;;;6.33;;
17171;SDS011;8701;50.150;8.756;2024-03-02T11:20:45;7.30;;;6.00;;
17171;SDS011;8701;50.150;8.756;2024-03-02T11:24:48;8.47;;;7.47;;
17171;SDS011;8701;50.150;8.756;2024-03-02T11:28:51;8.90;;;7.10;;
17171;SDS011;8701;50.150;8.756;2024-03-02T11:32:56;6.73;;;5.93;;
17171;SDS011;8701;50.150;8.756;2024-03-02T11:36:58;8.83;;;6.63;;
17171;SDS011;8701;50.150;8.756;2024-03-02T11:41:03;9.57;;;6.43;;
17171;SDS011;8701;50.150;8.756;2024-03-02T11:45:09;4.73;;;4.20;;
17171;SDS011;8701;50.150;8.756;2024-03-02T11:49:15;7.47;;;5.23;;
17171;SDS011;8701;50.150;8.756;2024-03-02T11:53:22;5.97;;;5.37;;
17171;SDS011;8701;50.150;8.756;2024-03-02T11:57:24;5.83;;;5.13;;
17171;SDS011;8701;50.150;8.756;2024-03-02T12:01:28;6.30;;;4.77;;
17171;SDS011;8701;50.150;8.756;2024-03-02T12:05:32;5.00;;;4.20;;
17171;SDS011;8701;50.150;8.756;2024-03-02T12:09:35;5.50;;;4.70;;
17171;SDS011;8701;50.150;8.756;2024-03-02T12:13:37;6.10;;;4.70;;
17171;SDS011;8701;50.150;8.756;2024-03-02T12:17:40;4.63;;;4.17;;
17171;SDS011;8701;50.150;8.756;2024-03-02T12:21:43;6.73;;;4.90;;
17171;SDS011;8701;50.150;8.756;2024-03-02T12:25:46;4.83;;;4.30;;
17171;SDS011;8701;50.150;8.756;2024-03-02T12:29:48;4.80;;;4.07;;
17171;SDS011;8701;50.150;8.756;2024-03-02T12:33:51;4.10;;;3.73;;
17171;SDS011;8701;50.150;8.756;2024-03-02T12:37:54;5.83;;;4.43;;
17171;SDS011;8701;50.150;8.756;2024-03-02T12:41:56;4.50;;;3.87;;
17171;SDS011;8701;50.150;8.756;2024-03-02T12:45:59;4.73;;;4.20;;
17171;SDS011;8701;50.150;8.756;2024-03-02T12:50:01;6.37;;;4.10;;
17171;SDS011;8701;50.150;8.756;2024-03-02T12:54:06;4.63;;;4.23;;
17171;SDS011;8701;50.150;8.756;2024-03-02T12:58:09;3.70;;;3.40;;
17171;SDS011;8701;50.150;8.756;2024-03-02T13:02:18;7.70;;;3.50;;
17171;SDS011;8701;50.150;8.756;2024-03-02T13:06:21;5.13;;;3.20;;
17171;SDS011;8701;50.150;8.756;2024-03-02T13:10:24;3.50;;;3.17;;
17171;SDS011;8701;50.150;8.756;2024-03-02T13:14:27;2.80;;;2.60;;
17171;SDS011;8701;50.150;8.756;2024-03-02T13:18:29;3.63;;;3.33;;
17171;SDS011;8701;50.150;8.756;2024-03-02T13:22:31;3.47;;;3.10;;
17171;SDS011;8701;50.150;8.756;2024-03-02T13:26:35;2.73;;;2.50;;
17171;SDS011;8701;50.150;8.756;2024-03-02T13:30:37;4.40;;;2.80;;
17171;SDS011;8701;50.150;8.756;2024-03-02T13:34:40;5.03;;;2.67;;
17171;SDS011;8701;50.150;8.756;2024-03-02T13:38:42;2.60;;;2.40;;
17171;SDS011;8701;50.150;8.756;2024-03-02T13:42:46;2.60;;;2.40;;
17171;SDS011;8701;50.150;8.756;2024-03-02T13:46:48;2.50;;;2.30;;
17171;SDS011;8701;50.150;8.756;2024-03-02T13:50:52;3.80;;;1.93;;
17171;SDS011;8701;50.150;8.756;2024-03-02T13:54:54;1.73;;;1.63;;
17171;SDS011;8701;50.150;8.756;2024-03-02T13:58:58;3.30;;;2.70;;
17171;SDS011;8701;50.150;8.756;2024-03-02T14:03:00;6.20;;;2.30;;
17171;SDS011;8701;50.150;8.756;2024-03-02T14:07:04;3.03;;;2.73;;
17171;SDS011;8701;50.150;8.756;2024-03-02T14:11:07;3.93;;;2.63;;
17171;SDS011;8701;50.150;8.756;2024-03-02T14:15:13;2.37;;;2.07;;
17171;SDS011;8701;50.150;8.756;2024-03-02T14:19:15;3.70;;;2.50;;
17171;SDS011;8701;50.150;8.756;2024-03-02T14:23:18;6.40;;;2.47;;
17171;SDS011;8701;50.150;8.756;2024-03-02T14:27:21;4.00;;;2.20;;
17171;SDS011;8701;50.150;8.756;2024-03-02T14:31:24;4.37;;;2.90;;
17171;SDS011;8701;50.150;8.756;2024-03-02T14:35:27;4.13;;;2.73;;
17171;SDS011;8701;50.150;8.756;2024-03-02T14:39:30;5.23;;;2.20;;
17171;SDS011;8701;50.150;8.756;2024-03-02T14:43:36;4.40;;;2.00;;
17171;SDS011;8701;50.150;8.756;2024-03-02T14:47:39;2.57;;;1.87;;
17171;SDS011;8701;50.150;8.756;2024-03-02T14:51:43;2.60;;;2.27;;
17171;SDS011;8701;50.150;8.756;2024-03-02T14:55:45;2.43;;;2.23;;
17171;SDS011;8701;50.150;8.756;2024-03-02T14:59:47;3.03;;;2.20;;
17171;SDS011;8701;50.150;8.756;2024-03-02T15:03:51;3.37;;;1.53;;
17171;SDS011;8701;50.150;8.756;2024-03-02T15:07:53;1.50;;;1.40;;
17171;SDS011;8701;50.150;8.756;2024-03-02T15:11:56;2.40;;;1.30;;
17171;SDS011;8701;50.150;8.756;2024-03-02T15:15:58;2.10;;;1.90;;
17171;SDS011;8701;50.150;8.756;2024-03-02T15:20:02;1.60;;;1.30;;
17171;SDS011;8701;50.150;8.756;2024-03-02T15:24:08;1.50;;;1.40;;
17171;SDS011;8701;50.150;8.756;2024-03-02T15:28:10;2.27;;;1.60;;
17171;SDS011;8701;50.150;8.756;2024-03-02T15:32:13;3.07;;;1.70;;
17171;SDS011;8701;50.150;8.756;2024-03-02T15:36:17;2.47;;;1.50;;
17171;SDS011;8701;50.150;8.756;2024-03-02T15:40:19;2.10;;;1.60;;
17171;SDS011;8701;50.150;8.756;2024-03-02T15:44:22;2.97;;;1.47;;
17171;SDS011;8701;50.150;8.756;2024-03-02T15:48:24;4.70;;;1.80;;
17171;SDS011;8701;50.150;8.756;2024-03-02T15:52:28;2.00;;;1.70;;
17171;SDS011;8701;50.150;8.756;2024-03-02T15:56:30;4.07;;;1.60;;
17171;SDS011;8701;50.150;8.756;2024-03-02T16:00:33;2.60;;;1.83;;
17171;SDS011;8701;50.150;8.756;2024-03-02T16:04:36;2.20;;;2.00;;
17171;SDS011;8701;50.150;8.756;2024-03-02T16:08:39;3.33;;;2.00;;
17171;SDS011;8701;50.150;8.756;2024-03-02T16:12:42;4.70;;;2.30;;
17171;SDS011;8701;50.150;8.756;2024-03-02T16:16:44;2.37;;;2.17;;
17171;SDS011;8701;50.150;8.756;2024-03-02T16:20:46;2.43;;;2.13;;
17171;SDS011;8701;50.150;8.756;2024-03-02T16:24:50;2.00;;;1.80;;
17171;SDS011;8701;50.150;8.756;2024-03-02T16:28:52;2.90;;;1.83;;
17171;SDS011;8701;50.150;8.756;2024-03-02T16:32:55;2.10;;;1.80;;
17171;SDS011;8701;50.150;8.756;2024-03-02T16:36:57;2.20;;;1.80;;
17171;SDS011;8701;50.150;8.756;2024-03-02T16:41:01;1.73;;;1.57;;
17171;SDS011;8701;50.150;8.756;2024-03-02T16:45:04;2.77;;;1.77;;
17171;SDS011;8701;50.150;8.756;2024-03-02T16:49:06;2.20;;;1.83;;
17171;SDS011;8701;50.150;8.756;2024-03-02T16:53:09;3.17;;;2.10;;
17171;SDS011;8701;50.150;8.756;2024-03-02T16:57:13;2.90;;;2.00;;
17171;SDS011;8701;50.150;8.756;2024-03-02T17:01:17;4.23;;;2.00;;
17171;SDS011;8701;50.150;8.756;2024-03-02T17:05:19;3.50;;;2.13;;
17171;SDS011;8701;50.150;8.756;2024-03-02T17:09:22;5.00;;;2.80;;
17171;SDS011;8701;50.150;8.756;2024-03-02T17:13:26;3.23;;;2.47;;
17171;SDS011;8701;50.150;8.756;2024-03-02T17:17:28;2.77;;;1.80;;
17171;SDS011;8701;50.150;8.756;2024-03-02T17:21:30;3.10;;;2.07;;
17171;SDS011;8701;50.150;8.756;2024-03-02T17:25:33;5.90;;;3.00;;
17171;SDS011;8701;50.150;8.756;2024-03-02T17:29:36;5.97;;;3.93;;
17171;SDS011;8701;50.150;8.756;2024-03-02T17:33:39;6.10;;;3.90;;
17171;SDS011;8701;50.150;8.756;2024-03-02T17:37:42;5.83;;;2.90;;
17171;SDS011;8701;50.150;8.756;2024-03-02T17:41:47;5.13;;;2.80;;
17171;SDS011;8701;50.150;8.756;2024-03-02T17:45:50;4.90;;;2.40;;
17171;SDS011;8701;50.150;8.756;2024-03-02T17:49:52;2.40;;;2.20;;
17171;SDS011;8701;50.150;8.756;2024-03-02T17:53:55;2.10;;;2.00;;
17171;SDS011;8701;50.150;8.756;2024-03-02T17:57:57;2.27;;;2.00;;
17171;SDS011;8701;50.150;8.756;2024-03-02T18:02:01;2.73;;;2.47;;
17171;SDS011;8701;50.150;8.756;2024-03-02T18:06:03;2.43;;;2.03;;
17171;SDS011;8701;50.150;8.756;2024-03-02T18:10:07;3.43;;;2.83;;
17171;SDS011;8701;50.150;8.756;2024-03-02T18:14:09;9.20;;;3.20;;
17171;SDS011;8701;50.150;8.756;2024-03-02T18:18:13;3.70;;;2.90;;
17171;SDS011;8701;50.150;8.756;2024-03-02T18:22:15;7.40;;;3.40;;
17171;SDS011;8701;50.150;8.756;2024-03-02T18:26:18;8.53;;;3.10;;
17171;SDS011;8701;50.150;8.756;2024-03-02T18:30:20;4.87;;;3.40;;
17171;SDS011;8701;50.150;8.756;2024-03-02T18:34:25;3.40;;;2.73;;
17171;SDS011;8701;50.150;8.756;2024-03-02T18:38:27;4.13;;;2.90;;
17171;SDS011;8701;50.150;8.756;2024-03-02T18:42:30;3.70;;;2.60;;
17171;SDS011;8701;50.150;8.756;2024-03-02T18:46:32;3.33;;;3.03;;
17171;SDS011;8701;50.150;8.756;2024-03-02T18:50:36;3.70;;;2.90;;
17171;SDS011;8701;50.150;8.756;2024-03-02T18:54:40;3.13;;;2.80;;
17171;SDS011;8701;50.150;8.756;2024-03-02T18:58:42;3.97;;;3.10;;
17171;SDS011;8701;50.150;8.756;2024-03-02T19:02:44;5.07;;;3.03;;
17171;SDS011;8701;50.150;8.756;2024-03-02T19:06:48;6.60;;;2.67;;
17171;SDS011;8701;50.150;8.756;2024-03-02T19:10:50;3.50;;;2.80;;
17171;SDS011;8701;50.150;8.756;2024-03-02T19:14:53;3.50;;;2.80;;
17171;SDS011;8701;50.150;8.756;2024-03-02T19:18:56;4.63;;;3.33;;
17171;SDS011;8701;50.150;8.756;2024-03-02T19:22:59;3.87;;;2.93;;
17171;SDS011;8701;50.150;8.756;2024-03-02T19:27:02;3.67;;;3.17;;
17171;SDS011;8701;50.150;8.756;2024-03-02T19:31:04;4.80;;;3.73;;
17171;SDS011;8701;50.150;8.756;2024-03-02T19:35:07;7.33;;;4.33;;
17171;SDS011;8701;50.150;8.756;2024-03-02T19:39:13;4.47;;;3.50;;
17171;SDS011;8701;50.150;8.756;2024-03-02T19:43:18;7.20;;;4.47;;
17171;SDS011;8701;50.150;8.756;2024-03-02T19:47:21;7.20;;;4.37;;
17171;SDS011;8701;50.150;8.756;2024-03-02T19:51:23;8.10;;;5.07;;
17171;SDS011;8701;50.150;8.756;2024-03-02T19:55:26;6.17;;;4.77;;
17171;SDS011;8701;50.150;8.756;2024-03-02T19:59:31;5.20;;;3.77;;
17171;SDS011;8701;50.150;8.756;2024-03-02T20:03:33;7.30;;;5.50;;
17171;SDS011;8701;50.150;8.756;2024-03-02T20:07:35;5.70;;;4.37;;
17171;SDS011;8701;50.150;8.756;2024-03-02T20:11:41;7.70;;;4.17;;
17171;SDS011;8701;50.150;8.756;2024-03-02T20:15:44;8.00;;;4.73;;
17171;SDS011;8701;50.150;8.756;2024-03-02T20:19:46;8.30;;;5.30;;
17171;SDS011;8701;50.150;8.756;2024-03-02T20:23:49;9.70;;;5.90;;
17171;SDS011;8701;50.150;8.756;2024-03-02T20:27:52;10.07;;;6.30;;
17171;SDS011;8701;50.150;8.756;2024-03-02T20:31:55;9.27;;;6.30;;
17171;SDS011;8701;50.150;8.756;2024-03-02T20:35:59;19.20;;;6.87;;
17171;SDS011;8701;50.150;8.756;2024-03-02T20:40:03;13.40;;;6.50;;
17171;SDS011;8701;50.150;8.756;2024-03-02T20:44:08;11.30;;;6.93;;
17171;SDS011;8701;50.150;8.756;2024-03-02T20:48:14;11.13;;;6.67;;
17171;SDS011;8701;50.150;8.756;2024-03-02T20:52:18;9.03;;;6.00;;
17171;SDS011;8701;50.150;8.756;2024-03-02T20:56:21;9.57;;;6.53;;
17171;SDS011;8701;50.150;8.756;2024-03-02T21:00:25;10.00;;;6.27;;
17171;SDS011;8701;50.150;8.756;2024-03-02T21:04:27;8.47;;;5.50;;
17171;SDS011;8701;50.150;8.756;2024-03-02T21:08:30;9.83;;;6.27;;
17171;SDS011;8701;50.150;8.756;2024-03-02T21:12:32;10.00;;;6.13;;
17171;SDS011;8701;50.150;8.756;2024-03-02T21:16:36;10.03;;;6.20;;
17171;SDS011;8701;50.150;8.756;2024-03-02T21:20:40;9.47;;;6.27;;
17171;SDS011;8701;50.150;8.756;2024-03-02T21:24:44;10.40;;;6.60;;
17171;SDS011;8701;50.150;8.756;2024-03-02T21:28:46;9.27;;;5.80;;
17171;SDS011;8701;50.150;8.756;2024-03-02T21:32:52;7.70;;;5.50;;
17171;SDS011;8701;50.150;8.756;2024-03-02T21:36:55;10.17;;;6.73;;
17171;SDS011;8701;50.150;8.756;2024-03-02T21:40:58;11.50;;;7.13;;
17171;SDS011;8701;50.150;8.756;2024-03-02T21:45:00;10.73;;;6.53;;
17171;SDS011;8701;50.150;8.756;2024-03-02T21:49:04;11.63;;;6.77;;
17171;SDS011;8701;50.150;8.756;2024-03-02T21:53:06;7.20;;;5.07;;
17171;SDS011;8701;50.150;8.756;2024-03-02T21:57:08;9.47;;;6.03;;
17171;SDS011;8701;50.150;8.756;2024-03-02T22:01:16;10.87;;;7.17;;
17171;SDS011;8701;50.150;8.756;2024-03-02T22:05:20;12.50;;;7.13;;
17171;SDS011;8701;50.150;8.756;2024-03-02T22:09:24;17.07;;;6.90;;
17171;SDS011;8701;50.150;8.756;2024-03-02T22:13:26;10.67;;;6.80;;
17171;SDS011;8701;50.150;8.756;2024-03-02T22:17:28;12.60;;;7.20;;
17171;SDS011;8701;50.150;8.756;2024-03-02T22:21:32;9.23;;;6.40;;
17171;SDS011;8701;50.150;8.756;2024-03-02T22:25:34;10.50;;;6.70;;
17171;SDS011;8701;50.150;8.756;2024-03-02T22:29:36;12.80;;;7.13;;
17171;SDS011;8701;50.150;8.756;2024-03-02T22:33:40;11.13;;;7.57;;
17171;SDS011;8701;50.150;8.756;2024-03-02T22:37:44;13.43;;;7.63;;
17171;SDS011;8701;50.150;8.756;2024-03-02T22:41:46;12.50;;;7.67;;
17171;SDS011;8701;50.150;8.756;2024-03-02T22:45:51;12.83;;;7.23;;
17171;SDS011;8701;50.150;8.756;2024-03-02T22:49:53;12.03;;;7.27;;
17171;SDS011;8701;50.150;8.756;2024-03-02T22:53:58;13.17;;;6.87;;
17171;SDS011;8701;50.150;8.756;2024-03-02T22:58:00;11.57;;;7.43;;
17171;SDS011;8701;50.150;8.756;2024-03-02T23:02:02;14.77;;;8.27;;
17171;SDS011;8701;50.150;8.756;2024-03-02T23:06:05;16.67;;;8.63;;
17171;SDS011;8701;50.150;8.756;2024-03-02T23:10:10;11.43;;;7.43;;
17171;SDS011;8701;50.150;8.756;2024-03-02T23:14:12;12.73;;;7.90;;
17171;SDS011;8701;50.150;8.756;2024-03-02T23:18:14;13.13;;;8.00;;
17171;SDS011;8701;50.150;8.756;2024-03-02T23:22:17;12.97;;;7.83;;
17171;SDS011;8701;50.150;8.756;2024-03-02T23:26:20;13.17;;;7.60;;
17171;SDS011;8701;50.150;8.756;2024-03-02T23:30:23;15.57;;;8.00;;
17171;SDS011;8701;50.150;8.756;2024-03-02T23:34:26;14.20;;;8.20;;
17171;SDS011;8701;50.150;8.756;2024-03-02T23:38:29;13.10;;;6.90;;
17171;SDS011;8701;50.150;8.756;2024-03-02T23:42:32;15.83;;;8.07;;
17171;SDS011;8701;50.150;8.756;2024-03-02T23:46:37;13.23;;;8.50;;
17171;SDS011;8701;50.150;8.756;2024-03-02T23:50:39;16.50;;;9.37;;
17171;SDS011;8701;50.150;8.756;2024-03-02T23:54:42;15.07;;;9.00;;
17171;SDS011;8701;50.150;8.756;2024-03-02T23:58:45;19.20;;;9.40;;
